createdAt,value
2022-10-21T00:01:00.069Z,13.77
2022-10-21T00:03:28.453Z,17.07
2022-10-21T00:05:58.020Z,17.63
2022-10-21T00:08:26.358Z,17.10
2022-10-21T00:10:55.874Z,14.80
2022-10-21T00:13:24.679Z,14.17
2022-10-21T00:16:00.398Z,15.17
2022-10-21T00:18:29.252Z,16.93
2022-10-21T00:20:58.755Z,23.63
2022-10-21T00:23:27.174Z,20.83
2022-10-21T00:25:57.854Z,17.47
2022-10-21T00:28:26.079Z,19.30
2022-10-21T00:30:54.307Z,17.97
2022-10-21T00:33:22.387Z,15.20
2022-10-21T00:35:54.277Z,18.47
2022-10-21T00:38:23.773Z,16.70
2022-10-21T00:40:52.109Z,16.83
2022-10-21T00:43:20.125Z,15.30
2022-10-21T00:45:49.635Z,16.50
2022-10-21T00:48:25.953Z,14.97
2022-10-21T00:50:57.966Z,13.70
2022-10-21T00:53:27.881Z,16.73
2022-10-21T00:56:00.167Z,13.57
2022-10-21T00:58:32.528Z,14.83
2022-10-21T01:01:02.659Z,21.00
2022-10-21T01:03:32.471Z,18.60
2022-10-21T01:06:03.024Z,19.63
2022-10-21T01:08:32.484Z,18.27
2022-10-21T01:11:02.999Z,18.43
2022-10-21T01:13:40.832Z,17.67
2022-10-21T01:16:15.012Z,20.13
2022-10-21T01:18:50.309Z,22.00
2022-10-21T01:21:30.330Z,14.23
2022-10-21T01:24:30.695Z,13.20
2022-10-21T01:27:20.787Z,21.37
2022-10-21T01:30:12.191Z,19.37
2022-10-21T01:32:57.639Z,17.00
2022-10-21T01:35:29.573Z,14.07
2022-10-21T01:38:08.268Z,16.77
2022-10-21T01:40:43.450Z,20.80
2022-10-21T01:43:18.580Z,16.17
2022-10-21T01:45:53.293Z,14.57
2022-10-21T01:48:25.449Z,16.00
2022-10-21T01:50:57.359Z,15.87
2022-10-21T01:53:29.874Z,15.17
2022-10-21T01:55:59.889Z,14.43
2022-10-21T01:58:32.275Z,16.80
2022-10-21T02:01:02.242Z,21.30
2022-10-21T02:03:35.720Z,14.73
2022-10-21T02:06:03.877Z,16.03
2022-10-21T02:08:32.001Z,16.23
2022-10-21T02:11:03.353Z,20.33
2022-10-21T02:13:34.632Z,24.00
2022-10-21T02:16:06.371Z,19.00
2022-10-21T02:18:35.954Z,14.80
2022-10-21T02:21:08.690Z,17.67
2022-10-21T02:23:49.697Z,20.37
2022-10-21T02:26:18.160Z,21.10
2022-10-21T02:28:46.488Z,15.80
2022-10-21T02:31:35.753Z,18.50
2022-10-21T02:34:15.808Z,13.60
2022-10-21T02:36:50.868Z,15.77
2022-10-21T02:39:24.773Z,17.20
2022-10-21T02:41:55.483Z,20.43
2022-10-21T02:44:24.082Z,17.53
2022-10-21T02:46:53.352Z,15.77
2022-10-21T02:49:22.713Z,14.93
2022-10-21T02:51:50.900Z,16.83
2022-10-21T02:54:18.932Z,20.47
2022-10-21T02:56:46.926Z,16.40
2022-10-21T02:59:14.977Z,19.10
2022-10-21T03:01:43.005Z,16.50
2022-10-21T03:04:10.988Z,16.67
2022-10-21T03:06:43.115Z,18.03
2022-10-21T03:09:11.144Z,19.23
2022-10-21T03:11:39.193Z,17.40
2022-10-21T03:14:07.259Z,25.67
2022-10-21T03:16:35.595Z,16.60
2022-10-21T03:19:03.901Z,20.70
2022-10-21T03:21:31.894Z,18.90
2022-10-21T03:24:01.205Z,18.77
2022-10-21T03:26:29.194Z,22.03
2022-10-21T03:28:57.185Z,23.20
2022-10-21T03:31:25.174Z,17.43
2022-10-21T03:33:53.192Z,18.97
2022-10-21T03:36:21.570Z,19.70
2022-10-21T03:38:49.679Z,24.53
2022-10-21T03:41:19.027Z,19.70
2022-10-21T03:43:47.035Z,15.90
2022-10-21T03:46:15.065Z,19.60
2022-10-21T03:48:43.028Z,19.17
2022-10-21T03:51:11.015Z,18.23
2022-10-21T03:53:43.372Z,22.30
2022-10-21T03:56:12.311Z,17.27
2022-10-21T03:58:42.509Z,17.67
2022-10-21T04:01:13.814Z,20.23
2022-10-21T04:03:42.241Z,15.13
2022-10-21T04:06:10.377Z,17.93
2022-10-21T04:08:38.446Z,17.03
2022-10-21T04:11:06.659Z,17.20
2022-10-21T04:13:34.845Z,18.00
2022-10-21T04:16:06.497Z,20.57
2022-10-21T04:18:34.807Z,18.27
2022-10-21T04:21:02.833Z,18.07
2022-10-21T04:23:30.803Z,18.00
2022-10-21T04:25:58.874Z,17.70
2022-10-21T04:28:26.941Z,22.07
2022-10-21T04:30:54.936Z,20.00
2022-10-21T04:33:24.369Z,20.00
2022-10-21T04:35:54.196Z,15.37
2022-10-21T04:38:22.696Z,19.53
2022-10-21T04:40:56.969Z,24.60
2022-10-21T04:43:25.109Z,18.13
2022-10-21T04:45:53.736Z,15.20
2022-10-21T04:48:21.788Z,20.30
2022-10-21T04:50:51.923Z,23.27
2022-10-21T04:53:20.123Z,22.53
2022-10-21T05:10:09.050Z,24.60
2022-10-21T05:12:58.072Z,20.37
2022-10-21T05:15:46.381Z,19.60
2022-10-21T05:18:34.759Z,18.60
2022-10-21T05:21:23.096Z,17.27
2022-10-21T05:24:11.438Z,17.07
2022-10-21T05:27:01.258Z,22.53
2022-10-21T05:29:49.652Z,17.93
2022-10-21T05:32:38.369Z,26.03
2022-10-21T05:35:27.018Z,23.07
2022-10-21T05:38:15.368Z,17.87
2022-10-21T05:41:04.051Z,23.27
2022-10-21T05:43:53.760Z,22.20
2022-10-21T05:46:42.131Z,19.97
2022-10-21T05:49:30.489Z,20.83
2022-10-21T05:52:18.823Z,28.60
2022-10-21T05:55:08.830Z,24.50
2022-10-21T05:57:59.332Z,26.40
2022-10-21T06:00:49.770Z,25.33
2022-10-21T06:03:38.314Z,26.57
2022-10-21T06:06:26.704Z,21.30
2022-10-21T06:09:15.061Z,24.10
2022-10-21T06:12:03.420Z,30.40
2022-10-21T06:14:51.842Z,32.20
2022-10-21T06:17:41.736Z,27.97
2022-10-21T06:20:30.165Z,24.00
2022-10-21T06:23:18.512Z,26.17
2022-10-21T06:26:09.644Z,32.13
2022-10-21T06:28:59.036Z,26.27
2022-10-21T06:31:47.475Z,22.20
2022-10-21T06:34:37.147Z,28.07
2022-10-21T06:37:25.779Z,24.70
2022-10-21T06:40:14.122Z,32.57
2022-10-21T06:43:03.661Z,30.10
2022-10-21T06:45:51.966Z,24.63
2022-10-21T06:48:40.763Z,24.43
2022-10-21T06:51:30.464Z,26.07
2022-10-21T06:54:18.786Z,28.77
2022-10-21T06:57:07.151Z,24.50
2022-10-21T06:59:55.509Z,27.13
2022-10-21T07:02:43.829Z,30.17
2022-10-21T07:05:32.167Z,31.10
2022-10-21T07:08:22.492Z,32.73
2022-10-21T07:11:23.138Z,24.97
2022-10-21T07:14:12.675Z,28.20
2022-10-21T07:17:01.137Z,22.17
2022-10-21T07:19:49.550Z,24.53
2022-10-21T07:22:37.896Z,30.33
2022-10-21T07:25:27.792Z,28.73
2022-10-21T07:28:16.095Z,25.73
2022-10-21T07:31:06.234Z,23.83
2022-10-21T07:33:55.142Z,29.80
2022-10-21T07:36:47.947Z,23.80
2022-10-21T07:39:36.449Z,26.20
2022-10-21T07:42:26.161Z,20.40
2022-10-21T07:44:59.301Z,25.57
2022-10-21T07:47:27.512Z,24.97
2022-10-21T07:49:55.589Z,19.90
2022-10-21T07:52:23.624Z,15.33
2022-10-21T07:54:51.890Z,19.90
2022-10-21T07:57:19.933Z,12.63
2022-10-21T07:59:49.279Z,19.90
2022-10-21T08:02:17.400Z,21.47
2022-10-21T08:04:45.440Z,15.43
2022-10-21T08:07:14.039Z,20.70
2022-10-21T08:09:42.159Z,13.80
2022-10-21T08:12:12.973Z,16.67
2022-10-21T08:14:43.303Z,14.20
2022-10-21T08:17:12.659Z,16.83
2022-10-21T08:19:40.747Z,12.53
2022-10-21T08:22:08.743Z,7.83
2022-10-21T08:24:39.919Z,13.00
2022-10-21T08:27:10.319Z,12.77
2022-10-21T08:29:40.022Z,13.73
2022-10-21T08:32:08.322Z,12.03
2022-10-21T08:34:38.264Z,13.87
2022-10-21T08:37:06.326Z,9.57
2022-10-21T08:39:34.360Z,11.80
2022-10-21T08:42:08.688Z,12.33
2022-10-21T08:44:42.522Z,8.17
2022-10-21T08:47:17.967Z,8.83
2022-10-21T08:50:12.989Z,6.30
2022-10-21T08:52:44.798Z,6.53
2022-10-21T08:55:19.719Z,8.27
2022-10-21T08:57:48.871Z,4.43
2022-10-21T09:00:19.628Z,8.00
2022-10-21T09:03:01.918Z,9.10
2022-10-21T09:05:38.425Z,9.20
2022-10-21T09:08:17.707Z,9.40
2022-10-21T09:10:57.353Z,9.23
2022-10-21T09:13:56.932Z,13.50
2022-10-21T09:16:33.549Z,11.37
2022-10-21T09:19:13.012Z,10.47
2022-10-21T09:22:10.837Z,9.20
2022-10-21T09:24:53.209Z,7.10
2022-10-21T09:27:32.093Z,6.93
2022-10-21T09:30:17.246Z,7.30
2022-10-21T09:32:49.843Z,8.40
2022-10-21T09:35:24.920Z,9.83
2022-10-21T09:37:57.465Z,6.80
2022-10-21T09:40:28.374Z,8.83
2022-10-21T09:42:59.050Z,6.53
2022-10-21T09:45:33.931Z,5.00
2022-10-21T09:48:04.525Z,6.00
2022-10-21T09:50:35.363Z,5.80
2022-10-21T09:53:10.110Z,5.30
2022-10-21T09:55:40.969Z,3.70
2022-10-21T09:58:09.331Z,4.47
2022-10-21T10:00:44.279Z,4.20
2022-10-21T10:03:12.430Z,4.60
2022-10-21T10:05:46.776Z,9.40
2022-10-21T10:08:34.031Z,6.43
2022-10-21T10:11:13.848Z,2.83
2022-10-21T10:13:44.648Z,3.77
2022-10-21T10:16:22.208Z,3.10
2022-10-21T10:18:52.314Z,4.70
2022-10-21T10:21:21.881Z,6.50
2022-10-21T10:23:52.892Z,3.00
2022-10-21T10:26:31.200Z,3.97
2022-10-21T10:29:03.683Z,2.33
2022-10-21T10:31:34.912Z,3.70
2022-10-21T10:34:06.672Z,3.20
2022-10-21T10:36:37.919Z,2.17
2022-10-21T10:39:09.992Z,6.50
2022-10-21T10:41:40.583Z,9.10
2022-10-21T10:44:19.703Z,1.80
2022-10-21T10:46:55.389Z,2.00
2022-10-21T10:49:24.308Z,2.03
2022-10-21T10:52:16.870Z,1.20
2022-10-21T10:54:46.302Z,0.80
2022-10-21T10:57:16.645Z,0.80
2022-10-21T10:59:48.101Z,1.53
2022-10-21T11:02:35.466Z,1.40
2022-10-21T11:05:20.229Z,1.10
2022-10-21T11:07:51.382Z,1.00
2022-10-21T11:10:33.947Z,1.43
2022-10-21T11:13:04.403Z,2.00
2022-10-21T11:15:45.947Z,1.80
2022-10-21T11:18:25.228Z,2.50
2022-10-21T11:21:06.145Z,2.00
2022-10-21T11:23:57.994Z,1.50
2022-10-21T11:26:37.514Z,1.80
2022-10-21T11:29:19.856Z,3.57
2022-10-21T11:32:14.235Z,1.43
2022-10-21T11:34:54.250Z,2.50
2022-10-21T11:37:32.341Z,1.73
2022-10-21T11:40:08.765Z,2.00
2022-10-21T11:42:43.247Z,1.67
2022-10-21T11:45:30.605Z,2.90
2022-10-21T11:48:08.173Z,3.87
2022-10-21T11:50:44.365Z,2.87
2022-10-21T11:53:27.711Z,2.40
2022-10-21T11:56:03.823Z,2.07
2022-10-21T11:58:54.608Z,3.77
2022-10-21T12:01:32.809Z,2.60
2022-10-21T12:04:24.366Z,1.83
2022-10-21T12:07:07.768Z,2.40
2022-10-21T12:09:42.281Z,1.93
2022-10-21T12:12:14.063Z,2.50
2022-10-21T12:14:47.958Z,2.83
2022-10-21T12:17:20.209Z,1.83
2022-10-21T12:19:55.697Z,2.47
2022-10-21T12:22:26.470Z,3.70
2022-10-21T12:25:01.830Z,2.90
2022-10-21T12:27:36.368Z,1.93
2022-10-21T12:30:13.835Z,2.73
2022-10-21T12:32:50.175Z,3.37
2022-10-21T12:38:27.241Z,2.37
2022-10-21T12:41:34.444Z,1.87
2022-10-21T12:44:22.358Z,1.50
2022-10-21T12:46:54.674Z,2.53
2022-10-21T12:49:26.545Z,4.63
2022-10-21T12:51:59.528Z,5.60
2022-10-21T12:54:30.773Z,2.17
2022-10-21T12:57:04.466Z,2.53
2022-10-21T12:59:36.144Z,3.40
2022-10-21T13:02:24.638Z,5.33
2022-10-21T13:04:59.987Z,2.80
2022-10-21T13:07:31.255Z,4.23
2022-10-21T13:10:28.177Z,4.97
2022-10-21T13:13:42.059Z,3.10
2022-10-21T13:16:29.715Z,3.77
2022-10-21T13:19:03.756Z,5.73
2022-10-21T13:21:36.350Z,7.80
2022-10-21T13:24:20.728Z,4.07
2022-10-21T13:26:51.765Z,5.90
2022-10-21T13:29:33.432Z,5.33
2022-10-21T13:32:31.027Z,5.20
2022-10-21T13:35:26.384Z,2.77
2022-10-21T13:38:03.457Z,4.10
2022-10-21T13:40:46.021Z,2.67
2022-10-21T13:43:17.685Z,4.23
2022-10-21T13:45:49.821Z,2.43
2022-10-21T13:48:20.087Z,4.90
2022-10-21T13:50:50.232Z,2.40
2022-10-21T13:53:25.355Z,4.57
2022-10-21T13:55:58.906Z,3.13
2022-10-21T13:58:28.833Z,6.70
2022-10-21T14:00:58.999Z,3.20
2022-10-21T14:03:28.260Z,2.20
2022-10-21T14:05:59.783Z,3.73
2022-10-21T14:08:33.122Z,3.37
2022-10-21T14:11:03.611Z,4.37
2022-10-21T14:13:36.474Z,3.80
2022-10-21T14:16:05.318Z,3.77
2022-10-21T14:18:37.146Z,3.07
2022-10-21T14:21:06.636Z,3.10
2022-10-21T14:23:36.254Z,5.30
2022-10-21T14:26:07.585Z,3.30
2022-10-21T14:28:36.891Z,1.70
2022-10-21T14:33:44.932Z,2.37
2022-10-21T14:36:16.039Z,3.13
2022-10-21T14:38:54.162Z,3.00
2022-10-21T14:41:26.062Z,3.10
2022-10-21T14:43:55.659Z,2.57
2022-10-21T14:46:23.891Z,5.50
2022-10-21T14:48:55.409Z,6.60
2022-10-21T14:51:24.025Z,6.90
2022-10-21T14:53:56.569Z,3.37
2022-10-21T14:56:30.908Z,2.10
2022-10-21T14:59:01.100Z,2.80
2022-10-21T15:01:29.222Z,3.63
2022-10-21T15:03:58.685Z,4.43
2022-10-21T15:06:30.289Z,2.23
2022-10-21T15:09:17.984Z,6.03
2022-10-21T15:11:48.751Z,3.90
2022-10-21T15:14:28.982Z,2.60
2022-10-21T15:17:01.755Z,2.40
2022-10-21T15:19:45.528Z,3.83
2022-10-21T15:22:24.358Z,2.90
2022-10-21T15:24:56.097Z,4.63
2022-10-21T15:27:29.019Z,3.30
2022-10-21T15:29:57.170Z,4.20
2022-10-21T15:32:29.606Z,5.63
2022-10-21T15:34:59.474Z,7.97
2022-10-21T15:37:27.462Z,3.73
2022-10-21T15:39:57.079Z,2.70
2022-10-21T15:42:25.083Z,8.40
2022-10-21T15:44:53.099Z,5.70
2022-10-21T15:47:21.088Z,4.10
2022-10-21T15:49:49.334Z,2.73
2022-10-21T15:52:18.387Z,3.40
2022-10-21T15:54:46.384Z,5.00
2022-10-21T15:57:19.477Z,4.53
2022-10-21T15:59:48.831Z,3.53
2022-10-21T16:02:18.461Z,3.53
2022-10-21T16:04:46.890Z,5.70
2022-10-21T16:07:21.241Z,3.10
2022-10-21T16:09:49.584Z,4.37
2022-10-21T16:12:21.712Z,4.60
2022-10-21T16:14:49.754Z,4.00
2022-10-21T16:17:18.013Z,7.43
2022-10-21T16:19:46.127Z,5.90
2022-10-21T16:22:16.967Z,7.03
2022-10-21T16:24:45.150Z,4.00
2022-10-21T16:27:17.646Z,6.00
2022-10-21T16:29:55.760Z,7.03
2022-10-21T16:32:25.189Z,2.23
2022-10-21T16:34:53.478Z,7.63
2022-10-21T16:37:25.753Z,6.07
2022-10-21T16:39:53.937Z,5.53
2022-10-21T16:42:22.027Z,2.57
2022-10-21T16:44:51.030Z,5.20
2022-10-21T16:47:22.507Z,6.60
2022-10-21T16:49:50.622Z,4.07
2022-10-21T16:52:18.644Z,5.33
2022-10-21T16:54:48.883Z,6.23
2022-10-21T16:57:17.123Z,4.53
2022-10-21T16:59:45.236Z,6.60
2022-10-21T17:02:17.000Z,6.00
2022-10-21T17:04:47.063Z,11.00
2022-10-21T17:07:15.362Z,11.07
2022-10-21T17:09:43.334Z,4.30
2022-10-21T17:12:12.070Z,5.87
2022-10-21T17:14:40.747Z,4.80
2022-10-21T17:17:08.738Z,5.97
2022-10-21T17:19:36.818Z,5.30
2022-10-21T17:22:06.200Z,5.00
2022-10-21T17:24:34.204Z,5.30
2022-10-21T17:27:02.345Z,6.57
2022-10-21T17:29:30.364Z,5.20
2022-10-21T17:31:58.401Z,9.90
2022-10-21T17:34:29.155Z,17.40
2022-10-21T17:36:57.519Z,7.20
2022-10-21T17:39:27.870Z,5.97
2022-10-21T17:41:55.925Z,9.60
2022-10-21T17:44:24.051Z,6.80
2022-10-21T17:46:54.552Z,5.90
2022-10-21T17:49:23.246Z,6.83
2022-10-21T17:51:51.688Z,5.27
2022-10-21T17:54:22.947Z,5.17
2022-10-21T17:56:56.617Z,10.83
2022-10-21T17:59:24.642Z,5.67
2022-10-21T18:01:52.617Z,6.50
2022-10-21T18:04:20.683Z,7.20
2022-10-21T18:06:48.750Z,3.53
2022-10-21T18:09:17.008Z,4.10
2022-10-21T18:11:45.193Z,7.20
2022-10-21T18:14:15.127Z,6.20
2022-10-21T18:16:43.280Z,9.50
2022-10-21T18:19:12.038Z,5.87
2022-10-21T18:21:40.157Z,9.40
2022-10-21T18:24:12.176Z,9.60
2022-10-21T18:26:40.697Z,7.50
2022-10-21T18:29:08.806Z,5.23
2022-10-21T18:31:38.720Z,7.13
2022-10-21T18:34:09.110Z,7.63
2022-10-21T18:36:37.135Z,6.60
2022-10-21T18:39:06.319Z,5.83
2022-10-21T18:41:34.387Z,6.90
2022-10-21T18:44:07.962Z,5.20
2022-10-21T18:46:39.195Z,13.77
2022-10-21T18:49:09.319Z,6.47
2022-10-21T18:51:37.352Z,6.60
2022-10-21T18:54:05.613Z,8.43
2022-10-21T18:56:33.726Z,6.10
2022-10-21T18:59:01.741Z,7.43
2022-10-21T19:01:29.963Z,8.10
2022-10-21T19:03:59.664Z,8.90
2022-10-21T19:06:47.086Z,7.23
2022-10-21T19:09:17.747Z,9.33
2022-10-21T19:11:46.619Z,8.50
2022-10-21T19:14:15.530Z,5.73
2022-10-21T19:16:44.461Z,8.37
2022-10-21T19:19:14.557Z,6.40
2022-10-21T19:21:42.890Z,11.70
2022-10-21T19:24:11.690Z,6.90
2022-10-21T19:26:41.136Z,5.67
2022-10-21T19:29:13.401Z,9.70
2022-10-21T19:31:41.758Z,5.80
2022-10-21T19:34:13.939Z,6.13
2022-10-21T19:36:42.242Z,6.80
2022-10-21T19:39:10.353Z,10.30
2022-10-21T19:41:38.467Z,10.20
2022-10-21T19:44:06.662Z,5.27
2022-10-21T19:46:36.034Z,7.50
2022-10-21T19:49:05.312Z,7.90
2022-10-21T19:51:34.795Z,10.57
2022-10-21T19:54:04.487Z,5.87
2022-10-21T19:56:34.389Z,4.70
2022-10-21T19:59:03.423Z,5.93
2022-10-21T20:01:33.510Z,10.47
2022-10-21T20:04:04.647Z,10.90
2022-10-21T20:06:38.376Z,6.70
2022-10-21T20:09:12.923Z,5.67
2022-10-21T20:11:43.714Z,11.40
2022-10-21T20:14:14.730Z,7.30
2022-10-21T20:16:44.671Z,8.00
2022-10-21T20:19:13.445Z,6.57
2022-10-21T20:21:43.439Z,7.37
2022-10-21T20:24:13.698Z,7.20
2022-10-21T20:26:42.648Z,6.67
2022-10-21T20:29:11.179Z,5.20
2022-10-21T20:31:39.159Z,6.40
2022-10-21T20:34:07.155Z,6.60
2022-10-21T20:36:35.251Z,7.00
2022-10-21T20:39:05.274Z,8.50
2022-10-21T20:41:37.059Z,7.83
2022-10-21T20:44:07.766Z,9.63
2022-10-21T20:46:36.199Z,7.17
2022-10-21T20:49:05.242Z,15.30
2022-10-21T20:51:33.385Z,18.80
2022-10-21T20:54:04.743Z,17.73
2022-10-21T20:56:34.701Z,8.70
2022-10-21T20:59:03.615Z,7.57
2022-10-21T21:01:33.484Z,6.43
2022-10-21T21:04:04.709Z,10.07
2022-10-21T21:06:38.070Z,9.63
2022-10-21T21:09:33.098Z,5.70
2022-10-21T21:11:55.847Z,6.07
2022-10-21T21:14:23.987Z,12.10
2022-10-21T21:16:52.017Z,7.87
2022-10-21T21:19:20.685Z,7.37
2022-10-21T21:21:49.648Z,8.60
2022-10-21T21:24:19.027Z,8.37
2022-10-21T21:26:47.399Z,9.83
2022-10-21T21:29:15.750Z,13.40
2022-10-21T21:31:44.134Z,10.23
2022-10-21T21:34:12.664Z,6.33
2022-10-21T21:36:40.919Z,4.43
2022-10-21T21:39:09.509Z,7.83
2022-10-21T21:41:39.011Z,5.93
2022-10-21T21:44:07.244Z,4.80
2022-10-21T21:46:35.269Z,23.43
2022-10-21T21:49:06.268Z,10.70
2022-10-21T21:51:36.815Z,9.40
2022-10-21T21:54:07.625Z,4.50
2022-10-21T21:56:35.804Z,10.07
2022-10-21T21:59:05.759Z,14.00
2022-10-21T22:01:33.857Z,6.40
2022-10-21T22:04:01.979Z,6.53
2022-10-21T22:06:32.346Z,4.17
2022-10-21T22:09:01.027Z,4.67
2022-10-21T22:11:31.986Z,4.53
2022-10-21T22:14:00.515Z,4.37
2022-10-21T22:16:30.895Z,12.60
2022-10-21T22:19:00.815Z,6.70
2022-10-21T22:21:29.928Z,9.70
2022-10-21T22:23:58.132Z,8.80
2022-10-21T22:26:27.492Z,10.83
2022-10-21T22:28:55.511Z,6.00
2022-10-21T22:31:29.141Z,8.03
2022-10-21T22:34:01.136Z,8.60
2022-10-21T22:36:29.256Z,8.73
2022-10-21T22:38:57.344Z,6.33
2022-10-21T22:41:25.370Z,6.00
2022-10-21T22:43:53.923Z,9.63
2022-10-21T22:46:33.545Z,5.90
2022-10-21T22:49:04.730Z,5.00
2022-10-21T22:51:33.274Z,3.87
2022-10-21T22:54:01.598Z,10.30
2022-10-21T22:56:30.037Z,8.03
2022-10-21T22:58:58.210Z,6.57
2022-10-21T23:01:29.992Z,13.20
2022-10-21T23:03:58.268Z,14.00
2022-10-21T23:06:27.600Z,7.40
2022-10-21T23:08:55.759Z,11.00
2022-10-21T23:11:23.875Z,6.67
2022-10-21T23:14:02.502Z,5.67
2022-10-21T23:16:32.049Z,9.70
2022-10-21T23:19:00.346Z,12.90
2022-10-21T23:21:30.245Z,5.10
2022-10-21T23:23:58.369Z,3.80
2022-10-21T23:26:26.526Z,4.10
2022-10-21T23:28:54.643Z,9.10
2022-10-21T23:31:22.725Z,5.87
2022-10-21T23:33:50.756Z,8.40
2022-10-21T23:36:18.991Z,4.40
2022-10-21T23:38:48.707Z,6.43
2022-10-21T23:41:16.749Z,4.60
2022-10-21T23:43:45.112Z,7.20
2022-10-21T23:46:13.198Z,8.40
2022-10-21T23:48:41.336Z,8.30
2022-10-21T23:51:09.364Z,7.10
2022-10-21T23:53:37.527Z,20.03
2022-10-21T23:56:07.772Z,10.60
2022-10-21T23:58:35.864Z,8.20
